sensor_id;sensor_type;location;lat;lon;timestamp;P1;durP1;ratioP1;P2;durP2;ratioP2
39196;SDS011;42889;51.112;13.772;2022-11-03T00:01:36;5.90;;;1.40;;
39196;SDS011;42889;51.112;13.772;2022-11-03T00:04:06;4.28;;;1.83;;
39196;SDS011;42889;51.112;13.772;2022-11-03T00:06:34;3.75;;;1.42;;
39196;SDS011;42889;51.112;13.772;2022-11-03T00:09:03;7.53;;;1.83;;
39196;SDS011;42889;51.112;13.772;2022-11-03T00:11:35;4.18;;;1.67;;
39196;SDS011;42889;51.112;13.772;2022-11-03T00:14:04;3.65;;;1.40;;
39196;SDS011;42889;51.112;13.772;2022-11-03T00:16:31;6.82;;;1.55;;
39196;SDS011;42889;51.112;13.772;2022-11-03T00:18:58;4.18;;;1.17;;
39196;SDS011;42889;51.112;13.772;2022-11-03T00:21:25;6.22;;;1.50;;
39196;SDS011;42889;51.112;13.772;2022-11-03T00:23:52;4.13;;;1.70;;
39196;SDS011;42889;51.112;13.772;2022-11-03T00:26:20;10.95;;;1.73;;
39196;SDS011;42889;51.112;13.772;2022-11-03T00:28:49;5.43;;;1.30;;
39196;SDS011;42889;51.112;13.772;2022-11-03T00:31:20;6.75;;;1.40;;
39196;SDS011;42889;51.112;13.772;2022-11-03T00:33:49;6.47;;;2.03;;
39196;SDS011;42889;51.112;13.772;2022-11-03T00:36:18;4.78;;;1.92;;
39196;SDS011;42889;51.112;13.772;2022-11-03T00:38:46;5.82;;;1.90;;
39196;SDS011;42889;51.112;13.772;2022-11-03T00:41:14;4.00;;;1.50;;
39196;SDS011;42889;51.112;13.772;2022-11-03T00:43:42;7.63;;;1.67;;
39196;SDS011;42889;51.112;13.772;2022-11-03T00:46:09;4.13;;;1.17;;
39196;SDS011;42889;51.112;13.772;2022-11-03T00:48:36;4.97;;;1.58;;
39196;SDS011;42889;51.112;13.772;2022-11-03T00:53:36;7.82;;;1.30;;
39196;SDS011;42889;51.112;13.772;2022-11-03T00:56:04;4.10;;;1.33;;
39196;SDS011;42889;51.112;13.772;2022-11-03T00:58:32;7.15;;;1.80;;
39196;SDS011;42889;51.112;13.772;2022-11-03T01:01:03;4.97;;;1.50;;
39196;SDS011;42889;51.112;13.772;2022-11-03T01:03:34;4.32;;;1.30;;
39196;SDS011;42889;51.112;13.772;2022-11-03T01:06:06;7.55;;;1.38;;
39196;SDS011;42889;51.112;13.772;2022-11-03T01:08:53;6.05;;;1.88;;
39196;SDS011;42889;51.112;13.772;2022-11-03T01:11:21;3.92;;;1.50;;
39196;SDS011;42889;51.112;13.772;2022-11-03T01:14:08;4.85;;;1.30;;
39196;SDS011;42889;51.112;13.772;2022-11-03T01:16:37;7.30;;;1.65;;
39196;SDS011;42889;51.112;13.772;2022-11-03T01:19:03;9.32;;;1.75;;
39196;SDS011;42889;51.112;13.772;2022-11-03T01:21:30;4.22;;;1.48;;
39196;SDS011;42889;51.112;13.772;2022-11-03T01:23:58;4.43;;;1.48;;
39196;SDS011;42889;51.112;13.772;2022-11-03T01:26:27;4.30;;;1.63;;
39196;SDS011;42889;51.112;13.772;2022-11-03T01:28:54;7.22;;;1.75;;
39196;SDS011;42889;51.112;13.772;2022-11-03T01:31:21;5.13;;;1.65;;
39196;SDS011;42889;51.112;13.772;2022-11-03T01:33:50;7.20;;;1.88;;
39196;SDS011;42889;51.112;13.772;2022-11-03T01:36:18;12.05;;;3.17;;
39196;SDS011;42889;51.112;13.772;2022-11-03T01:38:46;7.32;;;2.30;;
39196;SDS011;42889;51.112;13.772;2022-11-03T01:41:23;9.07;;;2.60;;
39196;SDS011;42889;51.112;13.772;2022-11-03T01:46:45;4.72;;;2.00;;
39196;SDS011;42889;51.112;13.772;2022-11-03T01:49:25;7.65;;;2.42;;
39196;SDS011;42889;51.112;13.772;2022-11-03T01:52:14;6.70;;;2.10;;
39196;SDS011;42889;51.112;13.772;2022-11-03T01:54:47;12.13;;;2.97;;
39196;SDS011;42889;51.112;13.772;2022-11-03T01:57:19;7.05;;;2.22;;
39196;SDS011;42889;51.112;13.772;2022-11-03T01:59:50;8.10;;;2.65;;
39196;SDS011;42889;51.112;13.772;2022-11-03T02:02:22;7.05;;;2.47;;
39196;SDS011;42889;51.112;13.772;2022-11-03T02:04:50;7.65;;;2.65;;
39196;SDS011;42889;51.112;13.772;2022-11-03T02:07:24;7.38;;;2.40;;
39196;SDS011;42889;51.112;13.772;2022-11-03T02:09:57;12.85;;;2.72;;
39196;SDS011;42889;51.112;13.772;2022-11-03T02:12:24;7.00;;;2.65;;
39196;SDS011;42889;51.112;13.772;2022-11-03T02:14:53;7.63;;;2.15;;
39196;SDS011;42889;51.112;13.772;2022-11-03T02:17:23;5.43;;;2.20;;
39196;SDS011;42889;51.112;13.772;2022-11-03T02:20:00;5.95;;;2.03;;
39196;SDS011;42889;51.112;13.772;2022-11-03T02:28:14;6.85;;;2.60;;
39196;SDS011;42889;51.112;13.772;2022-11-03T02:39:16;6.85;;;2.42;;
39196;SDS011;42889;51.112;13.772;2022-11-03T02:41:46;6.20;;;2.40;;
39196;SDS011;42889;51.112;13.772;2022-11-03T02:44:16;5.53;;;2.22;;
39196;SDS011;42889;51.112;13.772;2022-11-03T02:46:44;6.45;;;2.28;;
39196;SDS011;42889;51.112;13.772;2022-11-03T02:49:14;5.95;;;2.20;;
39196;SDS011;42889;51.112;13.772;2022-11-03T02:51:41;6.93;;;2.40;;
39196;SDS011;42889;51.112;13.772;2022-11-03T02:54:10;5.43;;;1.90;;
39196;SDS011;42889;51.112;13.772;2022-11-03T02:56:53;5.20;;;1.95;;
39196;SDS011;42889;51.112;13.772;2022-11-03T02:59:26;6.72;;;2.10;;
39196;SDS011;42889;51.112;13.772;2022-11-03T03:02:02;5.40;;;2.05;;
39196;SDS011;42889;51.112;13.772;2022-11-03T03:04:54;6.18;;;2.25;;
39196;SDS011;42889;51.112;13.772;2022-11-03T03:07:25;6.80;;;2.08;;
39196;SDS011;42889;51.112;13.772;2022-11-03T03:10:00;4.25;;;1.70;;
39196;SDS011;42889;51.112;13.772;2022-11-03T03:12:32;6.00;;;2.20;;
39196;SDS011;42889;51.112;13.772;2022-11-03T03:22:59;8.27;;;1.77;;
39196;SDS011;42889;51.112;13.772;2022-11-03T03:25:38;8.80;;;1.45;;
39196;SDS011;42889;51.112;13.772;2022-11-03T03:28:09;8.15;;;1.52;;
39196;SDS011;42889;51.112;13.772;2022-11-03T03:30:43;6.40;;;1.80;;
39196;SDS011;42889;51.112;13.772;2022-11-03T03:33:12;3.53;;;1.35;;
39196;SDS011;42889;51.112;13.772;2022-11-03T03:35:41;7.35;;;1.73;;
39196;SDS011;42889;51.112;13.772;2022-11-03T03:38:15;6.30;;;1.60;;
39196;SDS011;42889;51.112;13.772;2022-11-03T03:40:48;5.07;;;1.27;;
39196;SDS011;42889;51.112;13.772;2022-11-03T03:43:17;4.43;;;1.35;;
39196;SDS011;42889;51.112;13.772;2022-11-03T03:45:47;8.63;;;1.25;;
39196;SDS011;42889;51.112;13.772;2022-11-03T03:48:17;8.88;;;1.70;;
39196;SDS011;42889;51.112;13.772;2022-11-03T03:50:44;3.72;;;1.20;;
39196;SDS011;42889;51.112;13.772;2022-11-03T03:53:14;4.57;;;1.42;;
39196;SDS011;42889;51.112;13.772;2022-11-03T03:55:46;7.88;;;1.35;;
39196;SDS011;42889;51.112;13.772;2022-11-03T03:58:15;6.75;;;1.73;;
39196;SDS011;42889;51.112;13.772;2022-11-03T04:00:42;6.13;;;1.45;;
39196;SDS011;42889;51.112;13.772;2022-11-03T04:03:17;7.22;;;1.77;;
39196;SDS011;42889;51.112;13.772;2022-11-03T04:05:46;3.83;;;1.30;;
39196;SDS011;42889;51.112;13.772;2022-11-03T04:08:14;7.22;;;1.42;;
39196;SDS011;42889;51.112;13.772;2022-11-03T04:10:42;3.90;;;1.40;;
39196;SDS011;42889;51.112;13.772;2022-11-03T04:13:29;7.47;;;1.95;;
39196;SDS011;42889;51.112;13.772;2022-11-03T04:16:25;6.72;;;1.70;;
39196;SDS011;42889;51.112;13.772;2022-11-03T04:19:10;3.45;;;1.40;;
39196;SDS011;42889;51.112;13.772;2022-11-03T04:21:55;3.95;;;1.35;;
39196;SDS011;42889;51.112;13.772;2022-11-03T04:24:41;6.57;;;1.48;;
39196;SDS011;42889;51.112;13.772;2022-11-03T04:27:15;5.60;;;1.65;;
39196;SDS011;42889;51.112;13.772;2022-11-03T04:29:57;5.53;;;1.90;;
39196;SDS011;42889;51.112;13.772;2022-11-03T04:32:27;6.22;;;1.85;;
39196;SDS011;42889;51.112;13.772;2022-11-03T04:34:54;9.88;;;1.90;;
39196;SDS011;42889;51.112;13.772;2022-11-03T04:37:21;5.15;;;1.60;;
39196;SDS011;42889;51.112;13.772;2022-11-03T04:39:48;6.28;;;1.42;;
39196;SDS011;42889;51.112;13.772;2022-11-03T04:42:18;5.22;;;1.55;;
39196;SDS011;42889;51.112;13.772;2022-11-03T04:45:36;5.65;;;1.75;;
39196;SDS011;42889;51.112;13.772;2022-11-03T04:48:27;6.10;;;1.90;;
39196;SDS011;42889;51.112;13.772;2022-11-03T04:51:18;5.32;;;2.30;;
39196;SDS011;42889;51.112;13.772;2022-11-03T04:54:13;9.00;;;1.90;;
39196;SDS011;42889;51.112;13.772;2022-11-03T05:03:06;5.72;;;1.92;;
39196;SDS011;42889;51.112;13.772;2022-11-03T05:06:35;5.78;;;1.88;;
39196;SDS011;42889;51.112;13.772;2022-11-03T05:09:26;5.80;;;1.50;;
39196;SDS011;42889;51.112;13.772;2022-11-03T05:12:56;8.90;;;3.47;;
39196;SDS011;42889;51.112;13.772;2022-11-03T05:16:52;8.27;;;3.33;;
39196;SDS011;42889;51.112;13.772;2022-11-03T05:20:30;11.20;;;4.03;;
39196;SDS011;42889;51.112;13.772;2022-11-03T05:27:00;14.27;;;4.47;;
39196;SDS011;42889;51.112;13.772;2022-11-03T05:34:23;12.15;;;4.15;;
39196;SDS011;42889;51.112;13.772;2022-11-03T05:38:13;17.67;;;4.30;;
39196;SDS011;42889;51.112;13.772;2022-11-03T05:41:23;10.07;;;4.03;;
39196;SDS011;42889;51.112;13.772;2022-11-03T05:44:31;15.88;;;5.30;;
39196;SDS011;42889;51.112;13.772;2022-11-03T05:48:13;9.93;;;4.47;;
39196;SDS011;42889;51.112;13.772;2022-11-03T05:51:41;10.38;;;4.47;;
39196;SDS011;42889;51.112;13.772;2022-11-03T05:55:00;14.10;;;4.38;;
39196;SDS011;42889;51.112;13.772;2022-11-03T05:58:29;10.60;;;3.60;;
39196;SDS011;42889;51.112;13.772;2022-11-03T06:01:53;9.35;;;3.83;;
39196;SDS011;42889;51.112;13.772;2022-11-03T06:04:51;13.20;;;3.37;;
39196;SDS011;42889;51.112;13.772;2022-11-03T06:08:23;11.40;;;3.72;;
39196;SDS011;42889;51.112;13.772;2022-11-03T06:11:35;11.40;;;3.85;;
39196;SDS011;42889;51.112;13.772;2022-11-03T06:14:52;9.75;;;3.83;;
39196;SDS011;42889;51.112;13.772;2022-11-03T06:17:43;9.50;;;3.58;;
39196;SDS011;42889;51.112;13.772;2022-11-03T06:20:30;12.32;;;3.22;;
39196;SDS011;42889;51.112;13.772;2022-11-03T06:24:06;7.32;;;3.17;;
39196;SDS011;42889;51.112;13.772;2022-11-03T06:27:21;8.48;;;3.47;;
39196;SDS011;42889;51.112;13.772;2022-11-03T06:30:35;9.67;;;3.20;;
39196;SDS011;42889;51.112;13.772;2022-11-03T06:33:53;12.20;;;4.32;;
39196;SDS011;42889;51.112;13.772;2022-11-03T06:36:57;7.47;;;3.70;;
39196;SDS011;42889;51.112;13.772;2022-11-03T06:39:29;11.27;;;4.03;;
39196;SDS011;42889;51.112;13.772;2022-11-03T06:42:20;11.20;;;3.60;;
39196;SDS011;42889;51.112;13.772;2022-11-03T06:45:52;9.52;;;3.83;;
39196;SDS011;42889;51.112;13.772;2022-11-03T06:49:33;9.82;;;3.45;;
39196;SDS011;42889;51.112;13.772;2022-11-03T06:56:35;16.10;;;4.60;;
39196;SDS011;42889;51.112;13.772;2022-11-03T06:59:23;13.68;;;5.00;;
39196;SDS011;42889;51.112;13.772;2022-11-03T07:05:28;15.93;;;4.40;;
39196;SDS011;42889;51.112;13.772;2022-11-03T07:08:33;11.60;;;3.95;;
39196;SDS011;42889;51.112;13.772;2022-11-03T07:11:23;11.25;;;4.05;;
39196;SDS011;42889;51.112;13.772;2022-11-03T07:14:26;8.98;;;3.20;;
39196;SDS011;42889;51.112;13.772;2022-11-03T07:19:47;7.82;;;2.67;;
39196;SDS011;42889;51.112;13.772;2022-11-03T07:22:37;12.43;;;3.80;;
39196;SDS011;42889;51.112;13.772;2022-11-03T07:25:42;8.27;;;2.92;;
39196;SDS011;42889;51.112;13.772;2022-11-03T07:29:14;7.43;;;3.00;;
39196;SDS011;42889;51.112;13.772;2022-11-03T07:39:08;5.70;;;2.00;;
39196;SDS011;42889;51.112;13.772;2022-11-03T07:42:40;7.40;;;1.67;;
39196;SDS011;42889;51.112;13.772;2022-11-03T08:45:59;2.85;;;1.25;;
39196;SDS011;42889;51.112;13.772;2022-11-03T11:09:27;2.72;;;0.50;;
39196;SDS011;42889;51.112;13.772;2022-11-03T11:16:01;4.47;;;0.50;;
39196;SDS011;42889;51.112;13.772;2022-11-03T11:20:59;4.35;;;0.70;;
39196;SDS011;42889;51.112;13.772;2022-11-03T11:33:32;4.55;;;0.50;;
39196;SDS011;42889;51.112;13.772;2022-11-03T15:21:53;10.50;;;3.55;;
39196;SDS011;42889;51.112;13.772;2022-11-03T15:24:20;8.60;;;2.85;;
39196;SDS011;42889;51.112;13.772;2022-11-03T15:27:07;7.05;;;2.72;;
39196;SDS011;42889;51.112;13.772;2022-11-03T15:29:34;7.60;;;2.83;;
39196;SDS011;42889;51.112;13.772;2022-11-03T15:32:08;8.45;;;3.00;;
39196;SDS011;42889;51.112;13.772;2022-11-03T15:34:35;7.50;;;2.58;;
39196;SDS011;42889;51.112;13.772;2022-11-03T15:40:39;7.65;;;2.97;;
39196;SDS011;42889;51.112;13.772;2022-11-03T15:43:06;6.88;;;2.58;;
39196;SDS011;42889;51.112;13.772;2022-11-03T15:45:33;9.30;;;2.63;;
39196;SDS011;42889;51.112;13.772;2022-11-03T15:48:01;8.25;;;2.67;;
39196;SDS011;42889;51.112;13.772;2022-11-03T15:50:27;11.52;;;2.58;;
39196;SDS011;42889;51.112;13.772;2022-11-03T15:52:54;8.00;;;2.50;;
39196;SDS011;42889;51.112;13.772;2022-11-03T15:55:21;8.95;;;2.88;;
39196;SDS011;42889;51.112;13.772;2022-11-03T15:57:49;7.22;;;2.47;;
39196;SDS011;42889;51.112;13.772;2022-11-03T16:00:17;9.55;;;2.58;;
39196;SDS011;42889;51.112;13.772;2022-11-03T16:02:46;7.00;;;2.63;;
39196;SDS011;42889;51.112;13.772;2022-11-03T16:05:15;6.72;;;2.70;;
39196;SDS011;42889;51.112;13.772;2022-11-03T16:07:51;7.75;;;2.65;;
39196;SDS011;42889;51.112;13.772;2022-11-03T16:10:18;7.80;;;2.47;;
39196;SDS011;42889;51.112;13.772;2022-11-03T16:12:45;7.95;;;2.30;;
39196;SDS011;42889;51.112;13.772;2022-11-03T16:15:13;9.45;;;2.85;;
39196;SDS011;42889;51.112;13.772;2022-11-03T16:17:42;8.75;;;2.63;;
39196;SDS011;42889;51.112;13.772;2022-11-03T16:20:11;8.80;;;3.47;;
39196;SDS011;42889;51.112;13.772;2022-11-03T16:22:38;9.90;;;2.72;;
39196;SDS011;42889;51.112;13.772;2022-11-03T16:25:05;7.15;;;2.35;;
39196;SDS011;42889;51.112;13.772;2022-11-03T16:27:39;7.90;;;2.97;;
39196;SDS011;42889;51.112;13.772;2022-11-03T16:30:09;7.35;;;2.72;;
39196;SDS011;42889;51.112;13.772;2022-11-03T16:32:37;7.20;;;2.58;;
39196;SDS011;42889;51.112;13.772;2022-11-03T16:35:05;7.85;;;2.60;;
39196;SDS011;42889;51.112;13.772;2022-11-03T16:37:34;6.93;;;2.92;;
39196;SDS011;42889;51.112;13.772;2022-11-03T16:40:04;8.32;;;3.28;;
39196;SDS011;42889;51.112;13.772;2022-11-03T16:42:31;9.85;;;2.80;;
39196;SDS011;42889;51.112;13.772;2022-11-03T16:45:13;6.65;;;2.60;;
39196;SDS011;42889;51.112;13.772;2022-11-03T16:47:44;9.85;;;3.10;;
39196;SDS011;42889;51.112;13.772;2022-11-03T16:50:15;7.57;;;2.90;;
39196;SDS011;42889;51.112;13.772;2022-11-03T16:52:43;9.40;;;3.45;;
39196;SDS011;42889;51.112;13.772;2022-11-03T16:55:14;11.38;;;2.97;;
39196;SDS011;42889;51.112;13.772;2022-11-03T16:57:41;8.18;;;3.28;;
39196;SDS011;42889;51.112;13.772;2022-11-03T17:00:17;7.68;;;3.15;;
39196;SDS011;42889;51.112;13.772;2022-11-03T17:02:46;9.98;;;2.80;;
39196;SDS011;42889;51.112;13.772;2022-11-03T17:05:13;6.63;;;2.90;;
39196;SDS011;42889;51.112;13.772;2022-11-03T17:07:42;7.45;;;2.63;;
39196;SDS011;42889;51.112;13.772;2022-11-03T17:10:13;6.78;;;2.75;;
39196;SDS011;42889;51.112;13.772;2022-11-03T17:12:40;8.77;;;2.95;;
39196;SDS011;42889;51.112;13.772;2022-11-03T17:15:07;7.97;;;3.53;;
39196;SDS011;42889;51.112;13.772;2022-11-03T17:17:34;8.68;;;2.85;;
39196;SDS011;42889;51.112;13.772;2022-11-03T17:20:00;8.90;;;2.60;;
39196;SDS011;42889;51.112;13.772;2022-11-03T17:22:27;7.97;;;2.67;;
39196;SDS011;42889;51.112;13.772;2022-11-03T17:24:54;7.13;;;2.67;;
39196;SDS011;42889;51.112;13.772;2022-11-03T17:27:22;9.93;;;2.70;;
39196;SDS011;42889;51.112;13.772;2022-11-03T17:30:20;9.50;;;2.90;;
39196;SDS011;42889;51.112;13.772;2022-11-03T17:32:49;8.93;;;3.15;;
39196;SDS011;42889;51.112;13.772;2022-11-03T17:35:19;6.03;;;2.90;;
39196;SDS011;42889;51.112;13.772;2022-11-03T17:37:49;7.53;;;3.20;;
39196;SDS011;42889;51.112;13.772;2022-11-03T17:40:21;8.10;;;3.40;;
39196;SDS011;42889;51.112;13.772;2022-11-03T17:42:50;7.75;;;3.13;;
39196;SDS011;42889;51.112;13.772;2022-11-03T17:45:18;9.30;;;3.08;;
39196;SDS011;42889;51.112;13.772;2022-11-03T17:47:45;8.65;;;2.80;;
39196;SDS011;42889;51.112;13.772;2022-11-03T17:50:15;8.32;;;2.78;;
39196;SDS011;42889;51.112;13.772;2022-11-03T17:52:44;10.13;;;3.20;;
39196;SDS011;42889;51.112;13.772;2022-11-03T17:55:28;8.98;;;3.50;;
39196;SDS011;42889;51.112;13.772;2022-11-03T17:57:58;9.23;;;3.25;;
39196;SDS011;42889;51.112;13.772;2022-11-03T18:00:26;8.13;;;2.80;;
39196;SDS011;42889;51.112;13.772;2022-11-03T18:02:54;8.38;;;3.17;;
39196;SDS011;42889;51.112;13.772;2022-11-03T18:05:22;9.43;;;3.28;;
39196;SDS011;42889;51.112;13.772;2022-11-03T18:07:59;9.20;;;3.35;;
39196;SDS011;42889;51.112;13.772;2022-11-03T18:10:28;9.25;;;3.75;;
39196;SDS011;42889;51.112;13.772;2022-11-03T18:12:59;7.88;;;2.70;;
39196;SDS011;42889;51.112;13.772;2022-11-03T18:15:46;8.80;;;3.40;;
39196;SDS011;42889;51.112;13.772;2022-11-03T18:21:02;9.52;;;3.80;;
39196;SDS011;42889;51.112;13.772;2022-11-03T18:23:30;11.85;;;4.38;;
39196;SDS011;42889;51.112;13.772;2022-11-03T18:25:59;8.82;;;3.58;;
39196;SDS011;42889;51.112;13.772;2022-11-03T18:28:27;11.00;;;4.28;;
39196;SDS011;42889;51.112;13.772;2022-11-03T18:30:54;11.77;;;4.80;;
39196;SDS011;42889;51.112;13.772;2022-11-03T18:33:23;10.75;;;5.03;;
39196;SDS011;42889;51.112;13.772;2022-11-03T18:35:52;13.32;;;5.03;;
39196;SDS011;42889;51.112;13.772;2022-11-03T18:38:20;9.88;;;4.88;;
39196;SDS011;42889;51.112;13.772;2022-11-03T18:40:48;8.90;;;5.03;;
39196;SDS011;42889;51.112;13.772;2022-11-03T18:43:19;13.45;;;4.90;;
39196;SDS011;42889;51.112;13.772;2022-11-03T18:45:47;8.48;;;4.38;;
39196;SDS011;42889;51.112;13.772;2022-11-03T18:48:14;11.85;;;4.55;;
39196;SDS011;42889;51.112;13.772;2022-11-03T18:50:48;10.13;;;4.20;;
39196;SDS011;42889;51.112;13.772;2022-11-03T18:53:20;9.48;;;4.47;;
39196;SDS011;42889;51.112;13.772;2022-11-03T18:55:49;9.00;;;4.63;;
39196;SDS011;42889;51.112;13.772;2022-11-03T18:58:21;11.40;;;4.90;;
39196;SDS011;42889;51.112;13.772;2022-11-03T19:00:50;11.90;;;5.25;;
39196;SDS011;42889;51.112;13.772;2022-11-03T19:03:18;9.15;;;4.78;;
39196;SDS011;42889;51.112;13.772;2022-11-03T19:05:49;13.52;;;5.40;;
39196;SDS011;42889;51.112;13.772;2022-11-03T19:08:19;10.65;;;5.30;;
39196;SDS011;42889;51.112;13.772;2022-11-03T19:10:49;9.77;;;4.93;;
39196;SDS011;42889;51.112;13.772;2022-11-03T19:13:21;11.80;;;5.05;;
39196;SDS011;42889;51.112;13.772;2022-11-03T19:15:56;10.60;;;4.32;;
39196;SDS011;42889;51.112;13.772;2022-11-03T19:18:26;11.95;;;4.85;;
39196;SDS011;42889;51.112;13.772;2022-11-03T19:20:54;10.30;;;4.75;;
39196;SDS011;42889;51.112;13.772;2022-11-03T19:23:20;14.38;;;5.85;;
39196;SDS011;42889;51.112;13.772;2022-11-03T19:25:47;11.50;;;5.15;;
39196;SDS011;42889;51.112;13.772;2022-11-03T19:28:22;10.77;;;5.10;;
39196;SDS011;42889;51.112;13.772;2022-11-03T19:30:52;11.18;;;4.95;;
39196;SDS011;42889;51.112;13.772;2022-11-03T19:33:23;12.27;;;4.97;;
39196;SDS011;42889;51.112;13.772;2022-11-03T19:35:53;13.80;;;5.30;;
39196;SDS011;42889;51.112;13.772;2022-11-03T19:38:20;10.07;;;4.88;;
39196;SDS011;42889;51.112;13.772;2022-11-03T19:40:46;10.75;;;4.90;;
39196;SDS011;42889;51.112;13.772;2022-11-03T19:43:32;12.60;;;5.30;;
39196;SDS011;42889;51.112;13.772;2022-11-03T19:46:02;13.25;;;4.95;;
39196;SDS011;42889;51.112;13.772;2022-11-03T19:49:14;10.05;;;4.85;;
39196;SDS011;42889;51.112;13.772;2022-11-03T19:52:37;9.23;;;4.97;;
39196;SDS011;42889;51.112;13.772;2022-11-03T20:20:54;10.97;;;4.53;;
39196;SDS011;42889;51.112;13.772;2022-11-03T20:24:38;9.20;;;4.15;;
39196;SDS011;42889;51.112;13.772;2022-11-03T20:28:18;11.52;;;4.72;;
39196;SDS011;42889;51.112;13.772;2022-11-03T20:36:36;13.07;;;5.38;;
39196;SDS011;42889;51.112;13.772;2022-11-03T23:54:38;10.80;;;3.70;;
